Time;durP1;ratioP1;P1;durP2;ratioP2;P2;SDS_P1;SDS_P2;PMS_P1;PMS_P2;Temp;Humidity;BMP_temperature;BMP_pressure;BME280_temperature;BME280_humidity;BME280_pressure;Samples;Min_cycle;Max_cycle;Signal;HPM_P1;HPM_P2
2021/05/01 00:01:46;;;;;;;6.40;2.38;;;27.40;69.30;;;;;;5075868;28;20390;-74
2021/05/01 00:04:13;;;;;;;3.33;2.30;;;27.60;69.50;;;;;;5070280;28;21785;-73
2021/05/01 00:06:40;;;;;;;3.08;2.13;;;27.60;68.20;;;;;;5068235;28;20403;-74
2021/05/01 00:09:08;;;;;;;4.25;1.92;;;27.80;69.10;;;;;;5072651;28;20470;-73
2021/05/01 00:11:35;;;;;;;4.53;2.63;;;28.30;69.30;;;;;;5071838;28;20183;-75
2021/05/01 00:14:03;;;;;;;8.05;2.47;;;28.70;67.20;;;;;;5078009;28;20108;-73
2021/05/01 00:16:31;;;;;;;4.47;1.70;;;29.00;66.00;;;;;;5072325;28;20028;-72
2021/05/01 00:18:59;;;;;;;5.38;1.90;;;29.00;66.10;;;;;;5071303;28;20026;-73
2021/05/01 00:21:27;;;;;;;4.57;1.10;;;28.80;65.20;;;;;;5071069;28;20024;-73
2021/05/01 00:23:54;;;;;;;2.33;1.45;;;28.30;67.20;;;;;;5082486;28;20503;-75
2021/05/01 00:26:22;;;;;;;1.70;1.33;;;27.80;69.10;;;;;;5078173;28;20148;-73
2021/05/01 00:28:49;;;;;;;3.35;1.95;;;27.40;67.80;;;;;;5074050;28;20029;-72
2021/05/01 00:31:20;;;;;;;1.75;1.40;;;27.70;69.40;;;;;;5074391;28;20126;-73
2021/05/01 00:33:48;;;;;;;4.45;2.10;;;28.70;67.00;;;;;;5079034;28;20394;-75
2021/05/01 00:36:15;;;;;;;4.07;2.00;;;28.80;68.70;;;;;;5076135;28;20031;-74
2021/05/01 00:38:44;;;;;;;2.63;2.25;;;29.40;63.50;;;;;;5073666;28;20032;-75
2021/05/01 00:41:12;;;;;;;4.60;2.10;;;29.30;64.00;;;;;;5078928;28;20386;-74
2021/05/01 00:43:43;;;;;;;3.35;2.40;;;29.10;65.20;;;;;;5085520;28;20024;-74
2021/05/01 00:46:10;;;;;;;2.92;2.15;;;29.10;64.40;;;;;;5076970;28;20025;-73
2021/05/01 00:48:38;;;;;;;3.58;1.88;;;28.70;66.20;;;;;;5079462;28;20041;-75
2021/05/01 00:51:05;;;;;;;4.20;2.22;;;28.30;66.20;;;;;;5072385;28;21807;-75
2021/05/01 00:53:33;;;;;;;2.67;1.67;;;27.70;68.50;;;;;;5081483;28;20028;-74
2021/05/01 00:56:05;;;;;;;3.25;2.17;;;28.00;68.70;;;;;;5075957;28;20039;-75
2021/05/01 00:58:32;;;;;;;4.00;2.13;;;28.00;67.60;;;;;;5081239;28;20147;-73
2021/05/01 01:03:40;;;;;;;6.20;1.98;;;27.20;67.80;;;;;;5073698;28;20433;-75
2021/05/01 01:06:08;;;;;;;3.47;2.47;;;27.20;68.00;;;;;;5062668;28;20496;-74
2021/05/01 01:08:36;;;;;;;2.97;2.13;;;26.60;69.60;;;;;;5070455;28;20043;-75
2021/05/01 01:11:05;;;;;;;2.67;1.98;;;25.70;70.80;;;;;;5081688;28;20450;-74
2021/05/01 01:13:33;;;;;;;3.63;2.67;;;24.90;73.90;;;;;;5079925;28;20028;-75
2021/05/01 01:16:01;;;;;;;4.97;3.10;;;24.20;77.30;;;;;;5075329;28;20509;-74
2021/05/01 01:18:29;;;;;;;4.38;2.88;;;23.90;76.50;;;;;;5080944;28;20024;-74
2021/05/01 01:21:00;;;;;;;4.70;3.20;;;23.70;78.30;;;;;;5069963;28;20032;-72
2021/05/01 01:23:28;;;;;;;3.95;3.33;;;23.70;78.00;;;;;;5081542;28;20034;-73
2021/05/01 01:25:56;;;;;;;3.45;2.80;;;24.60;77.60;;;;;;5074565;28;20032;-75
2021/05/01 01:28:23;;;;;;;3.35;2.58;;;25.30;76.10;;;;;;5077772;28;20016;-73
2021/05/01 01:30:51;;;;;;;6.97;3.00;;;25.50;72.80;;;;;;5065015;28;20040;-73
2021/05/01 01:33:18;;;;;;;4.57;3.17;;;25.20;72.90;;;;;;5074078;28;20028;-74
2021/05/01 01:35:45;;;;;;;5.25;3.67;;;25.00;74.00;;;;;;5066945;28;20033;-73
2021/05/01 01:38:13;;;;;;;5.32;3.30;;;24.30;75.70;;;;;;5063925;28;20111;-73
2021/05/01 01:40:42;;;;;;;6.72;4.00;;;25.10;75.10;;;;;;5071526;28;20055;-73
2021/05/01 01:43:10;;;;;;;5.22;3.95;;;26.00;74.60;;;;;;5071217;28;20024;-72
2021/05/01 01:45:38;;;;;;;5.07;2.80;;;26.20;74.20;;;;;;5073338;28;20030;-72
2021/05/01 01:48:05;;;;;;;5.20;3.25;;;26.90;69.80;;;;;;5071706;28;20035;-73
2021/05/01 01:50:33;;;;;;;3.58;3.13;;;27.80;67.90;;;;;;5074835;28;20169;-73
2021/05/01 01:53:01;;;;;;;5.10;3.35;;;28.00;66.20;;;;;;5074665;28;20440;-75
2021/05/01 01:55:29;;;;;;;5.97;3.65;;;27.90;66.80;;;;;;5074896;28;20029;-74
2021/05/01 01:57:56;;;;;;;4.22;3.83;;;27.00;66.80;;;;;;5071497;28;20032;-72
2021/05/01 02:00:28;;;;;;;6.88;4.70;;;26.00;70.30;;;;;;5072009;28;20407;-74
2021/05/01 02:02:56;;;;;;;7.20;4.43;;;25.10;71.70;;;;;;5069223;28;20036;-74
2021/05/01 02:05:24;;;;;;;5.53;4.03;;;24.60;73.40;;;;;;5078201;28;20025;-72
2021/05/01 02:07:52;;;;;;;7.18;4.38;;;24.40;75.10;;;;;;5065229;28;20034;-72
2021/05/01 02:10:20;;;;;;;5.78;4.22;;;24.20;75.10;;;;;;5071727;28;20040;-73
2021/05/01 02:12:48;;;;;;;5.75;4.50;;;24.40;76.90;;;;;;5079172;28;20587;-73
2021/05/01 02:15:18;;;;;;;5.30;4.50;;;24.80;74.20;;;;;;5082016;28;20034;-73
2021/05/01 02:17:51;;;;;;;8.55;3.88;;;25.70;72.50;;;;;;5074664;28;20031;-73
2021/05/01 02:20:24;;;;;;;5.07;4.28;;;26.20;71.40;;;;;;5076680;28;20016;-72
2021/05/01 02:22:52;;;;;;;4.95;4.30;;;25.80;71.00;;;;;;5079071;28;20079;-72
2021/05/01 02:25:19;;;;;;;5.22;4.72;;;24.90;73.00;;;;;;5080065;28;20107;-72
2021/05/01 02:27:47;;;;;;;5.13;4.50;;;24.40;74.60;;;;;;5077905;28;20016;-72
2021/05/01 02:30:23;;;;;;;6.03;5.00;;;24.10;76.00;;;;;;5076043;28;20462;-71
2021/05/01 02:32:51;;;;;;;5.65;4.72;;;24.10;76.30;;;;;;5072237;28;20089;-74
2021/05/01 02:35:22;;;;;;;6.32;4.72;;;24.10;76.30;;;;;;5076264;28;20024;-73
2021/05/01 02:37:50;;;;;;;5.60;4.78;;;24.00;75.50;;;;;;5071253;28;20024;-73
2021/05/01 02:40:19;;;;;;;6.18;4.50;;;23.90;77.20;;;;;;5070791;28;20032;-72
2021/05/01 02:42:47;;;;;;;5.70;5.10;;;23.90;76.30;;;;;;5076375;28;20154;-72
2021/05/01 02:45:17;;;;;;;7.97;5.10;;;24.20;75.70;;;;;;5072947;28;20043;-73
2021/05/01 02:47:45;;;;;;;8.73;5.60;;;25.40;72.60;;;;;;5067730;28;20009;-73
2021/05/01 02:50:14;;;;;;;5.72;5.22;;;26.50;70.10;;;;;;5069556;28;20640;-73
2021/05/01 02:52:42;;;;;;;8.27;4.43;;;26.90;68.20;;;;;;5083031;28;20466;-72
2021/05/01 02:55:11;;;;;;;6.07;4.40;;;27.40;68.00;;;;;;5077351;28;20055;-73
2021/05/01 02:57:39;;;;;;;5.55;4.70;;;27.20;68.00;;;;;;5073953;28;20127;-72
2021/05/01 03:00:10;;;;;;;6.07;5.03;;;26.50;68.10;;;;;;5072642;28;20024;-73
2021/05/01 03:02:38;;;;;;;8.27;5.45;;;26.30;69.20;;;;;;5063218;28;20037;-74
2021/05/01 03:05:10;;;;;;;5.22;4.13;;;26.10;71.40;;;;;;5079506;28;20040;-74
2021/05/01 03:07:38;;;;;;;5.07;4.55;;;26.80;68.40;;;;;;5077788;28;20028;-73
2021/05/01 03:10:13;;;;;;;6.05;4.45;;;27.00;66.10;;;;;;5026150;28;20156;-74
2021/05/01 03:12:41;;;;;;;5.25;4.75;;;27.00;66.00;;;;;;4999678;28;20485;-75
2021/05/01 03:15:10;;;;;;;5.40;4.90;;;26.40;67.10;;;;;;4989124;28;20045;-74
2021/05/01 03:17:38;;;;;;;5.35;4.93;;;26.00;68.90;;;;;;4988812;28;20396;-75
2021/05/01 03:20:07;;;;;;;5.75;4.82;;;25.10;70.40;;;;;;4990072;28;20038;-74
2021/05/01 03:22:34;;;;;;;5.55;5.03;;;24.40;72.10;;;;;;4994002;28;20464;-74
2021/05/01 03:25:03;;;;;;;6.45;5.78;;;23.90;74.30;;;;;;4990685;28;20033;-74
2021/05/01 03:27:30;;;;;;;6.80;5.30;;;23.50;75.60;;;;;;4993735;28;20037;-74
2021/05/01 03:29:58;;;;;;;9.05;5.30;;;24.20;74.80;;;;;;4986157;28;20034;-77
2021/05/01 03:32:25;;;;;;;6.80;4.93;;;24.70;73.80;;;;;;4988973;28;20030;-74
2021/05/01 03:34:53;;;;;;;6.30;5.35;;;25.30;73.00;;;;;;4990721;28;20034;-74
2021/05/01 03:37:20;;;;;;;6.40;5.60;;;25.90;69.90;;;;;;4991159;28;20115;-73
2021/05/01 03:39:48;;;;;;;8.18;6.10;;;26.20;70.00;;;;;;4986305;28;20027;-76
2021/05/01 03:42:16;;;;;;;6.95;5.50;;;25.60;70.20;;;;;;4994529;28;20057;-75
2021/05/01 03:44:43;;;;;;;8.82;6.22;;;25.30;72.30;;;;;;4988585;28;20030;-74
2021/05/01 03:47:11;;;;;;;6.78;5.40;;;25.50;71.80;;;;;;4994971;28;20036;-73
2021/05/01 03:49:39;;;;;;;7.75;5.97;;;25.30;71.50;;;;;;4984174;28;20058;-73
2021/05/01 03:52:06;;;;;;;7.93;5.43;;;25.20;72.70;;;;;;4992944;28;20030;-74
2021/05/01 03:54:34;;;;;;;7.53;6.00;;;25.10;73.50;;;;;;4988335;28;20022;-75
2021/05/01 03:57:01;;;;;;;9.27;6.10;;;24.50;72.40;;;;;;4989088;28;20034;-74
2021/05/01 03:59:29;;;;;;;6.63;5.95;;;24.30;74.20;;;;;;4991200;28;20116;-75
2021/05/01 04:01:56;;;;;;;5.78;5.18;;;24.70;73.30;;;;;;4992713;28;20062;-75
2021/05/01 04:04:24;;;;;;;6.13;5.25;;;25.30;72.30;;;;;;4989039;28;20042;-75
2021/05/01 04:06:52;;;;;;;6.10;5.50;;;25.60;70.30;;;;;;4996020;28;20041;-75
2021/05/01 04:09:20;;;;;;;5.65;5.05;;;25.70;70.00;;;;;;4992596;28;20038;-74
2021/05/01 04:11:47;;;;;;;4.93;4.53;;;25.60;69.40;;;;;;4991136;28;20424;-74
2021/05/01 04:14:15;;;;;;;7.20;4.72;;;25.60;71.20;;;;;;4993321;28;20536;-75
2021/05/01 04:16:42;;;;;;;5.50;5.00;;;25.60;69.80;;;;;;4988915;28;20046;-75
2021/05/01 04:19:10;;;;;;;8.68;4.88;;;25.60;70.30;;;;;;4991417;28;20018;-73
2021/05/01 04:21:37;;;;;;;4.75;3.95;;;25.60;68.50;;;;;;4990640;28;20581;-74
2021/05/01 04:24:06;;;;;;;5.25;4.20;;;25.30;69.30;;;;;;4990506;28;20042;-75
2021/05/01 04:26:33;;;;;;;4.40;3.90;;;25.00;70.40;;;;;;4987485;28;20038;-75
2021/05/01 04:29:01;;;;;;;5.63;4.60;;;24.60;70.40;;;;;;4991330;28;21093;-75
2021/05/01 04:31:29;;;;;;;5.60;4.43;;;24.30;72.00;;;;;;4995458;28;20453;-72
2021/05/01 04:33:56;;;;;;;4.95;4.07;;;24.00;72.70;;;;;;4990860;28;20080;-72
2021/05/01 04:36:23;;;;;;;5.63;4.85;;;23.90;73.00;;;;;;4991793;28;20026;-74
2021/05/01 04:38:51;;;;;;;4.72;4.30;;;24.00;73.20;;;;;;4994937;28;20514;-74
2021/05/01 04:41:18;;;;;;;6.55;4.32;;;24.10;72.60;;;;;;4992883;28;21920;-74
2021/05/01 04:43:46;;;;;;;5.35;4.40;;;24.30;71.60;;;;;;4991255;28;20481;-75
2021/05/01 04:46:20;;;;;;;4.63;4.15;;;24.40;71.50;;;;;;4989544;28;20081;-74
2021/05/01 04:48:47;;;;;;;6.85;4.72;;;24.40;70.60;;;;;;4989563;28;20848;-73
2021/05/01 04:51:15;;;;;;;6.53;4.82;;;24.20;71.80;;;;;;4993983;28;20104;-74
2021/05/01 04:53:42;;;;;;;6.85;4.97;;;24.00;72.00;;;;;;4990509;28;20018;-73
2021/05/01 04:56:09;;;;;;;8.98;4.93;;;24.00;73.30;;;;;;4987957;28;20511;-71
2021/05/01 04:58:37;;;;;;;6.40;4.70;;;23.90;73.30;;;;;;4995259;28;20030;-75
2021/05/01 05:01:05;;;;;;;5.10;4.55;;;24.00;73.70;;;;;;4984681;28;20023;-73
2021/05/01 05:03:32;;;;;;;7.10;4.78;;;24.10;72.90;;;;;;4991954;28;20061;-74
2021/05/01 05:05:59;;;;;;;6.00;5.38;;;24.10;72.90;;;;;;4992904;28;20061;-74
2021/05/01 05:08:27;;;;;;;6.15;5.28;;;24.10;72.40;;;;;;4993875;28;20064;-72
2021/05/01 05:10:54;;;;;;;6.75;5.53;;;24.00;73.20;;;;;;4992270;28;20029;-72
2021/05/01 05:13:26;;;;;;;5.90;4.90;;;24.00;74.10;;;;;;4995074;28;20084;-73
2021/05/01 05:15:54;;;;;;;4.50;4.10;;;24.00;73.30;;;;;;4995387;28;20037;-72
2021/05/01 05:18:23;;;;;;;7.22;4.55;;;23.90;73.80;;;;;;4991850;28;20050;-71
2021/05/01 05:20:50;;;;;;;4.20;3.47;;;23.90;72.40;;;;;;4993896;28;20528;-72
2021/05/01 05:23:18;;;;;;;9.30;4.63;;;23.80;72.50;;;;;;4994769;28;20030;-76
2021/05/01 05:25:45;;;;;;;5.57;4.60;;;23.70;73.10;;;;;;4990458;28;20554;-75
2021/05/01 05:28:14;;;;;;;5.85;4.63;;;23.70;73.70;;;;;;5000093;28;20042;-73
2021/05/01 05:30:41;;;;;;;4.32;4.00;;;23.70;73.10;;;;;;4991569;28;20144;-72
2021/05/01 05:33:13;;;;;;;7.13;4.00;;;23.80;74.40;;;;;;4996952;28;20033;-72
2021/05/01 05:35:41;;;;;;;6.90;4.13;;;24.00;73.10;;;;;;4990724;28;20033;-74
2021/05/01 05:38:08;;;;;;;7.80;5.15;;;24.00;73.20;;;;;;5000303;28;20036;-75
2021/05/01 05:40:39;;;;;;;5.38;4.65;;;24.10;73.10;;;;;;4991656;28;20051;-75
2021/05/01 05:43:07;;;;;;;5.38;4.85;;;24.20;72.70;;;;;;4997827;28;20034;-72
2021/05/01 05:45:34;;;;;;;6.38;4.53;;;24.30;72.20;;;;;;4994575;28;20113;-72
2021/05/01 05:48:03;;;;;;;4.25;3.60;;;24.40;71.80;;;;;;4996080;28;20035;-73
2021/05/01 05:50:31;;;;;;;6.43;4.47;;;24.30;72.70;;;;;;4993112;28;20963;-76
2021/05/01 05:52:59;;;;;;;6.90;4.90;;;24.40;72.10;;;;;;4994725;28;20037;-73
2021/05/01 05:55:27;;;;;;;5.55;4.75;;;24.60;71.70;;;;;;4991736;28;20030;-71
2021/05/01 05:57:56;;;;;;;4.50;4.10;;;24.50;71.60;;;;;;4995436;28;20109;-74
2021/05/01 06:00:26;;;;;;;4.55;4.10;;;24.50;72.10;;;;;;4994776;28;20117;-74
2021/05/01 06:02:55;;;;;;;6.93;5.03;;;24.60;72.00;;;;;;4989802;28;20034;-74
2021/05/01 06:05:31;;;;;;;8.10;4.60;;;24.80;71.90;;;;;;4999030;28;20476;-73
2021/05/01 06:08:01;;;;;;;5.65;3.20;;;24.80;73.60;;;;;;4996149;28;20113;-77
2021/05/01 06:10:30;;;;;;;6.03;4.20;;;24.80;74.20;;;;;;4990539;28;20038;-75
2021/05/01 06:12:59;;;;;;;2.95;2.65;;;24.80;74.50;;;;;;4994033;28;20045;-75
2021/05/01 06:15:27;;;;;;;4.55;3.08;;;24.60;75.10;;;;;;4995698;28;20056;-74
2021/05/01 06:17:58;;;;;;;3.75;1.92;;;24.40;76.10;;;;;;4998605;28;20026;-76
2021/05/01 06:20:28;;;;;;;3.95;2.70;;;24.10;77.40;;;;;;4990969;28;20036;-73
2021/05/01 06:22:56;;;;;;;3.72;2.13;;;23.90;78.80;;;;;;4989218;28;20154;-76
2021/05/01 06:25:24;;;;;;;4.32;2.28;;;23.80;79.30;;;;;;4992279;28;20057;-76
2021/05/01 06:27:55;;;;;;;6.95;3.08;;;23.60;79.60;;;;;;4992901;28;20034;-75
2021/05/01 06:30:24;;;;;;;5.15;2.92;;;23.40;80.20;;;;;;4995102;28;20036;-74
2021/05/01 06:32:52;;;;;;;5.10;2.75;;;23.30;80.60;;;;;;4996109;28;20137;-75
2021/05/01 06:35:21;;;;;;;12.50;2.72;;;23.20;80.80;;;;;;4993797;28;20026;-74
2021/05/01 06:37:51;;;;;;;3.58;1.92;;;23.20;81.10;;;;;;4994592;28;20033;-74
2021/05/01 06:40:25;;;;;;;3.95;1.63;;;23.20;81.30;;;;;;4994628;28;20484;-75
2021/05/01 06:43:04;;;;;;;5.93;1.70;;;23.10;81.70;;;;;;4995404;28;20045;-73
2021/05/01 06:45:35;;;;;;;4.15;2.03;;;23.10;82.10;;;;;;4994375;28;20026;-75
2021/05/01 06:48:05;;;;;;;2.53;1.75;;;23.00;82.30;;;;;;4989132;28;20057;-74
2021/05/01 06:50:33;;;;;;;4.60;1.33;;;22.90;82.40;;;;;;4992026;28;20034;-74
2021/05/01 06:53:02;;;;;;;2.78;1.50;;;22.90;82.80;;;;;;4995114;28;20029;-73
2021/05/01 06:55:31;;;;;;;2.72;1.23;;;22.80;82.70;;;;;;4991329;28;20044;-75
2021/05/01 06:58:01;;;;;;;3.63;1.70;;;22.80;82.90;;;;;;4992071;28;20325;-74
2021/05/01 07:00:29;;;;;;;2.95;1.13;;;22.80;82.90;;;;;;4986271;28;20034;-74
2021/05/01 07:03:05;;;;;;;3.75;1.30;;;22.70;82.90;;;;;;4996989;28;20032;-73
2021/05/01 07:05:33;;;;;;;6.50;2.15;;;22.70;83.30;;;;;;4997058;28;20034;-75
2021/05/01 07:08:02;;;;;;;2.22;1.30;;;22.60;83.50;;;;;;4994122;28;20247;-71
2021/05/01 07:10:31;;;;;;;1.98;1.20;;;22.60;83.70;;;;;;4989684;28;20096;-74
2021/05/01 07:13:00;;;;;;;2.00;1.20;;;22.50;83.80;;;;;;4988047;28;20041;-76
2021/05/01 07:15:28;;;;;;;5.30;1.60;;;22.40;84.10;;;;;;4990220;28;20025;-72
2021/05/01 07:17:55;;;;;;;3.20;1.67;;;22.30;84.80;;;;;;4995005;28;20053;-74
2021/05/01 07:20:25;;;;;;;3.97;1.50;;;22.20;84.90;;;;;;4992512;28;20481;-73
2021/05/01 07:22:55;;;;;;;2.47;1.63;;;22.10;86.10;;;;;;4991797;28;20026;-73
2021/05/01 07:25:22;;;;;;;2.05;1.88;;;22.00;86.50;;;;;;4986617;28;20049;-75
2021/05/01 07:27:56;;;;;;;3.15;2.00;;;21.90;86.20;;;;;;4991518;28;20026;-74
2021/05/01 07:30:25;;;;;;;6.10;2.20;;;21.90;86.60;;;;;;4997076;28;20515;-74
2021/05/01 07:33:27;;;;;;;3.50;2.63;;;21.80;86.60;;;;;;4989557;28;20030;-72
2021/05/01 07:35:58;;;;;;;7.53;2.28;;;21.70;87.00;;;;;;4980090;28;20050;-73
2021/05/01 07:38:26;;;;;;;5.85;2.28;;;21.70;87.00;;;;;;4994017;28;20105;-73
2021/05/01 07:40:58;;;;;;;6.28;3.95;;;21.80;86.70;;;;;;4991517;28;20033;-80
2021/05/01 07:43:26;;;;;;;4.45;2.58;;;21.80;87.00;;;;;;4992130;28;20057;-82
2021/05/01 07:45:54;;;;;;;4.45;1.83;;;21.50;88.30;;;;;;4989118;28;20091;-81
2021/05/01 07:48:22;;;;;;;4.95;2.00;;;21.40;89.50;;;;;;4993924;28;20396;-80
2021/05/01 07:50:56;;;;;;;6.63;1.83;;;21.20;90.10;;;;;;4994702;28;20558;-81
2021/05/01 07:53:26;;;;;;;13.68;3.55;;;21.10;90.50;;;;;;4994464;28;20049;-79
2021/05/01 07:55:53;;;;;;;12.15;4.32;;;21.00;90.80;;;;;;4993467;28;20393;-80
2021/05/01 07:58:22;;;;;;;17.52;5.25;;;20.90;91.10;;;;;;4994412;28;20094;-79
2021/05/01 08:00:49;;;;;;;7.72;2.40;;;20.90;91.20;;;;;;4990863;28;20041;-79
2021/05/01 08:03:17;;;;;;;4.97;1.48;;;20.90;91.30;;;;;;4987611;28;20022;-79
2021/05/01 08:05:44;;;;;;;5.68;2.00;;;20.90;91.90;;;;;;4988607;28;20072;-79
2021/05/01 08:08:11;;;;;;;3.85;1.92;;;20.80;92.10;;;;;;4992357;28;20069;-79
2021/05/01 08:10:39;;;;;;;10.52;4.30;;;20.70;92.40;;;;;;4991846;28;20041;-80
2021/05/01 08:13:06;;;;;;;22.40;7.75;;;20.70;92.70;;;;;;4993692;28;20476;-80
2021/05/01 08:15:34;;;;;;;37.47;17.15;;;20.70;92.90;;;;;;4993173;28;20083;-80
2021/05/01 08:18:06;;;;;;;27.23;8.48;;;20.60;93.10;;;;;;4998238;28;20038;-81
2021/05/01 08:20:34;;;;;;;21.25;7.28;;;20.50;93.50;;;;;;4990498;28;20105;-81
2021/05/01 08:23:02;;;;;;;27.33;8.68;;;20.50;93.60;;;;;;4988213;28;20027;-79
2021/05/01 08:25:30;;;;;;;26.27;8.13;;;20.40;93.70;;;;;;4991993;28;20026;-79
2021/05/01 08:27:58;;;;;;;20.30;6.95;;;20.30;93.90;;;;;;4998916;28;20030;-80
2021/05/01 08:30:26;;;;;;;9.95;1.40;;;20.30;93.90;;;;;;4991062;28;20039;-80
2021/05/01 08:32:54;;;;;;;9.85;1.58;;;20.30;94.10;;;;;;4991986;28;20113;-81
2021/05/01 08:35:22;;;;;;;7.35;0.90;;;20.20;94.00;;;;;;4988487;28;20021;-79
2021/05/01 08:37:49;;;;;;;5.70;1.02;;;20.20;94.10;;;;;;4993325;28;20555;-79
2021/05/01 08:40:17;;;;;;;13.68;1.38;;;20.20;94.20;;;;;;4989593;28;20029;-79
2021/05/01 08:42:47;;;;;;;12.52;2.35;;;20.10;94.20;;;;;;4993963;28;20032;-78
2021/05/01 08:45:17;;;;;;;12.95;2.22;;;20.10;94.30;;;;;;4995504;28;20021;-79
2021/05/01 08:47:46;;;;;;;10.32;1.58;;;20.10;94.30;;;;;;4993501;28;20432;-81
2021/05/01 08:50:41;;;;;;;11.60;2.35;;;20.00;94.50;;;;;;4995677;28;20045;-81
2021/05/01 08:53:09;;;;;;;10.50;2.15;;;20.10;94.50;;;;;;4988308;28;20496;-83
2021/05/01 08:55:38;;;;;;;8.50;2.13;;;20.00;94.50;;;;;;4993560;28;20066;-77
2021/05/01 08:58:14;;;;;;;6.05;1.83;;;20.00;94.60;;;;;;4995012;28;20026;-81
2021/05/01 09:00:45;;;;;;;6.90;1.75;;;20.00;94.70;;;;;;4995295;28;20477;-81
2021/05/01 09:03:14;;;;;;;7.72;1.55;;;19.90;94.80;;;;;;4997317;28;20038;-79
2021/05/01 09:05:42;;;;;;;7.75;1.83;;;19.90;94.90;;;;;;4994530;28;20940;-80
2021/05/01 09:08:12;;;;;;;7.40;1.63;;;19.90;95.00;;;;;;4998233;28;20032;-79
2021/05/01 09:10:45;;;;;;;9.15;2.40;;;19.80;95.10;;;;;;4992413;28;20118;-80
2021/05/01 09:13:21;;;;;;;15.98;2.00;;;19.80;95.20;;;;;;4991417;28;20084;-80
2021/05/01 09:16:09;;;;;;;10.77;2.33;;;19.70;95.30;;;;;;4995736;28;20496;-80
2021/05/01 09:18:54;;;;;;;11.75;1.75;;;19.70;95.40;;;;;;4997179;28;20030;-81
2021/05/01 09:21:24;;;;;;;10.52;1.15;;;19.60;95.50;;;;;;4992290;28;20477;-81
2021/05/01 09:23:53;;;;;;;9.50;1.45;;;19.70;95.70;;;;;;4994353;28;20026;-77
2021/05/01 09:26:41;;;;;;;16.10;2.40;;;19.60;96.00;;;;;;4993954;28;20034;-78
2021/05/01 09:29:10;;;;;;;8.75;1.65;;;19.50;95.80;;;;;;5002476;28;20477;-78
2021/05/01 09:31:45;;;;;;;11.27;4.50;;;19.50;95.80;;;;;;5006105;28;20034;-78
2021/05/01 09:34:12;;;;;;;;;;;19.50;95.80;;;;;;4999719;28;20078;-80
2021/05/01 09:36:41;;;;;;;12.55;4.75;;;19.50;95.80;;;;;;4993657;28;19988;-78
2021/05/01 09:39:14;;;;;;;4.57;2.45;;;19.50;95.90;;;;;;5000661;28;20034;-80
2021/05/01 09:41:46;;;;;;;4.60;1.75;;;19.40;96.00;;;;;;4994169;28;20026;-79
2021/05/01 09:44:16;;;;;;;4.45;1.35;;;19.40;96.00;;;;;;4991862;28;20023;-79
2021/05/01 09:46:50;;;;;;;3.40;1.40;;;19.30;95.90;;;;;;4994771;28;20537;-80
2021/05/01 09:49:21;;;;;;;3.25;1.20;;;19.30;96.10;;;;;;4991655;28;20093;-80
2021/05/01 09:51:51;;;;;;;6.25;1.48;;;19.20;96.10;;;;;;4993930;28;20030;-79
2021/05/01 09:54:24;;;;;;;13.85;2.40;;;19.20;96.10;;;;;;4992635;28;20041;-84
2021/05/01 09:56:53;;;;;;;6.93;1.52;;;19.10;96.00;;;;;;4991246;28;20144;-82
2021/05/01 09:59:21;;;;;;;4.70;1.60;;;19.10;96.20;;;;;;4992835;28;20018;-83
2021/05/01 10:02:01;;;;;;;8.15;1.60;;;19.00;96.20;;;;;;4990708;28;20034;-78
2021/05/01 10:04:29;;;;;;;5.60;1.35;;;19.00;96.10;;;;;;4987336;28;20104;-78
2021/05/01 10:07:03;;;;;;;3.05;1.67;;;18.90;96.10;;;;;;4990999;28;20019;-78
2021/05/01 10:09:33;;;;;;;4.68;1.33;;;18.80;96.20;;;;;;4996822;28;20031;-78
2021/05/01 10:12:12;;;;;;;2.80;1.55;;;18.80;96.20;;;;;;4989411;28;20084;-79
2021/05/01 10:14:47;;;;;;;5.03;1.80;;;18.70;96.40;;;;;;4992069;28;20113;-79
2021/05/01 10:17:28;;;;;;;6.18;1.77;;;18.70;96.40;;;;;;4996904;28;20032;-80
2021/05/01 10:20:00;;;;;;;5.95;1.77;;;18.70;96.50;;;;;;4991347;28;20319;-78
2021/05/01 10:22:42;;;;;;;5.55;1.60;;;18.70;96.40;;;;;;4995166;28;20066;-78
2021/05/01 10:25:14;;;;;;;5.53;2.03;;;18.70;96.60;;;;;;4988840;28;20026;-80
2021/05/01 10:27:49;;;;;;;5.60;2.90;;;18.60;97.00;;;;;;5001141;28;20019;-82
2021/05/01 10:30:30;;;;;;;8.98;2.92;;;18.50;97.30;;;;;;4999242;28;20085;-81
2021/05/01 10:33:36;;;;;;;10.43;3.63;;;18.50;97.50;;;;;;4995042;28;20113;-81
2021/05/01 10:36:30;;;;;;;5.50;2.53;;;18.40;97.70;;;;;;4994826;28;20081;-79
2021/05/01 10:39:10;;;;;;;6.05;2.83;;;18.40;97.80;;;;;;4992354;28;20058;-79
2021/05/01 10:41:37;;;;;;;7.22;2.80;;;18.30;97.60;;;;;;4998622;28;20057;-82
2021/05/01 10:44:07;;;;;;;7.38;2.78;;;18.30;97.70;;;;;;4993187;28;20025;-79
2021/05/01 10:46:41;;;;;;;6.32;3.17;;;18.40;97.50;;;;;;4994710;28;20456;-80
2021/05/01 10:49:11;;;;;;;5.20;2.80;;;18.30;97.40;;;;;;4994672;28;20141;-84
2021/05/01 10:51:46;;;;;;;7.95;3.03;;;18.30;97.10;;;;;;5000027;28;20333;-81
2021/05/01 10:54:18;;;;;;;;;;;18.30;97.00;;;;;;5007651;28;20088;-80
2021/05/01 10:56:51;;;;;;;7.07;3.22;;;18.30;97.50;;;;;;4994511;28;19910;-80
2021/05/01 10:59:22;;;;;;;8.35;3.00;;;18.20;97.40;;;;;;4991339;28;20063;-78
2021/05/01 11:01:51;;;;;;;5.65;2.47;;;18.20;97.30;;;;;;4996269;28;20412;-78
2021/05/01 11:04:27;;;;;;;7.22;2.80;;;18.20;97.30;;;;;;4990142;28;20030;-79
2021/05/01 11:07:22;;;;;;;5.40;2.67;;;18.10;97.20;;;;;;4992071;28;20501;-80
2021/05/01 11:09:51;;;;;;;8.77;3.03;;;18.10;97.00;;;;;;4990593;28;20473;-79
2021/05/01 11:12:23;;;;;;;6.18;3.05;;;18.10;97.10;;;;;;4990746;28;20508;-79
2021/05/01 11:14:56;;;;;;;6.78;4.18;;;18.10;97.20;;;;;;4994653;28;20503;-81
2021/05/01 11:17:43;;;;;;;8.07;5.32;;;18.10;97.40;;;;;;4992426;28;20101;-79
2021/05/01 11:20:16;;;;;;;12.10;8.18;;;18.00;97.40;;;;;;4994466;28;20019;-81
2021/05/01 11:22:48;;;;;;;10.40;8.13;;;18.00;97.40;;;;;;4995282;28;20107;-81
2021/05/01 11:25:17;;;;;;;8.07;5.88;;;18.10;97.40;;;;;;4987715;28;20037;-78
2021/05/01 11:27:47;;;;;;;11.77;5.28;;;18.00;97.70;;;;;;4990920;28;20034;-81
2021/05/01 11:30:26;;;;;;;10.80;5.13;;;18.00;97.40;;;;;;4990549;28;20093;-79
2021/05/01 11:32:56;;;;;;;7.50;3.58;;;17.90;97.40;;;;;;4998552;28;20030;-81
2021/05/01 11:35:31;;;;;;;10.40;3.60;;;17.90;97.40;;;;;;4995894;28;20500;-79
2021/05/01 11:38:01;;;;;;;7.00;3.40;;;17.80;97.40;;;;;;4989090;28;20046;-83
2021/05/01 11:40:30;;;;;;;6.72;2.58;;;17.80;97.30;;;;;;4992752;28;20030;-80
2021/05/01 11:42:59;;;;;;;10.60;3.83;;;17.70;97.20;;;;;;4986658;28;20022;-82
2021/05/01 11:45:44;;;;;;;7.93;2.58;;;17.60;97.50;;;;;;4991146;28;20049;-80
2021/05/01 11:48:17;;;;;;;7.88;3.00;;;17.60;97.30;;;;;;4992348;28;20022;-82
2021/05/01 11:50:49;;;;;;;7.20;3.40;;;17.50;97.30;;;;;;4989669;28;20061;-81
2021/05/01 11:53:19;;;;;;;7.85;3.50;;;17.50;97.20;;;;;;4993130;28;20492;-83
2021/05/01 11:56:06;;;;;;;4.32;2.75;;;17.40;97.60;;;;;;4994397;28;20034;-82
2021/05/01 11:58:37;;;;;;;7.32;3.05;;;17.30;97.20;;;;;;4992551;28;20440;-81
2021/05/01 12:01:15;;;;;;;4.32;2.53;;;17.20;97.10;;;;;;4992901;28;20023;-82
2021/05/01 12:03:53;;;;;;;11.75;3.28;;;17.20;97.30;;;;;;4993673;28;20058;-81
2021/05/01 12:06:30;;;;;;;6.57;3.08;;;17.20;97.40;;;;;;4991647;28;20027;-82
2021/05/01 12:09:23;;;;;;;4.78;2.15;;;17.20;97.20;;;;;;4990462;28;20034;-82
2021/05/01 12:11:52;;;;;;;7.43;3.28;;;17.10;97.10;;;;;;4989124;28;20066;-81
2021/05/01 12:14:19;;;;;;;7.18;2.72;;;17.00;97.10;;;;;;4990693;28;20109;-82
2021/05/01 12:16:47;;;;;;;7.30;2.75;;;17.00;96.90;;;;;;4993155;28;20022;-81
2021/05/01 12:19:26;;;;;;;6.00;3.00;;;16.90;96.90;;;;;;4997210;28;20046;-80
2021/05/01 12:21:55;;;;;;;10.77;3.90;;;16.80;97.40;;;;;;4994992;28;20026;-85
2021/05/01 12:24:31;;;;;;;4.25;2.58;;;16.80;97.20;;;;;;4994846;28;20614;-82
2021/05/01 12:26:59;;;;;;;5.38;3.17;;;16.80;97.40;;;;;;4992733;28;20173;-83
2021/05/01 12:29:33;;;;;;;6.35;3.42;;;16.70;97.40;;;;;;4992618;28;20108;-82
2021/05/01 12:32:06;;;;;;;6.15;3.70;;;16.70;97.50;;;;;;4997267;28;20524;-81
2021/05/01 12:34:52;;;;;;;5.05;2.88;;;16.70;97.40;;;;;;4991936;28;20022;-80
2021/05/01 12:37:22;;;;;;;7.03;3.20;;;16.70;97.10;;;;;;4995412;28;20057;-81
2021/05/01 12:39:49;;;;;;;6.40;3.10;;;16.70;97.10;;;;;;4997324;28;20038;-82
2021/05/01 12:42:21;;;;;;;6.43;3.38;;;16.60;97.30;;;;;;5007157;28;20049;-82
2021/05/01 12:44:55;;;;;;;7.10;3.63;;;16.50;97.20;;;;;;5013080;28;20026;-80
2021/05/01 12:47:38;;;;;;;5.50;2.92;;;16.40;97.40;;;;;;5004522;28;20022;-81
2021/05/01 12:50:26;;;;;;;6.63;3.13;;;16.40;97.70;;;;;;4993278;28;20082;-83
2021/05/01 12:53:14;;;;;;;5.32;3.63;;;16.40;97.60;;;;;;4998950;28;20495;-79
2021/05/01 12:56:18;;;;;;;8.13;5.22;;;16.40;97.40;;;;;;4989110;28;20026;-81
2021/05/01 12:58:46;;;;;;;5.18;3.53;;;16.30;97.70;;;;;;4991784;28;20062;-83
2021/05/01 13:01:31;;;;;;;5.22;3.10;;;16.30;97.60;;;;;;4995500;28;20053;-81
2021/05/01 13:04:25;;;;;;;7.30;3.50;;;16.30;97.50;;;;;;4996475;28;20026;-83
2021/05/01 13:07:00;;;;;;;6.63;3.28;;;16.30;97.90;;;;;;4993294;28;20489;-80